Time;durP1;ratioP1;P1;durP2;ratioP2;P2;SDS_P1;SDS_P2;PMS_P1;PMS_P2;Temp;Humidity;BMP_temperature;BMP_pressure;BME280_temperature;BME280_humidity;BME280_pressure;Samples;Min_cycle;Max_cycle;Signal;HPM_P1;HPM_P2
2022/04/04 00:01:22;;;;;;;13.15;5.63;;;;;;;;;;7377953;19;20012;-81
2022/04/04 00:03:47;;;;;;;10.05;5.10;;;;;;;;;;7377417;19;20418;-81
2022/04/04 00:06:12;;;;;;;11.13;5.22;;;;;;;;;;7376208;19;20274;-81
2022/04/04 00:08:37;;;;;;;7.63;4.20;;;;;;;;;;7364564;19;20569;-81
2022/04/04 00:11:03;;;;;;;10.07;4.70;;;;;;;;;;7378480;19;20018;-81
2022/04/04 00:13:28;;;;;;;7.63;4.18;;;;;;;;;;7333265;19;20616;-82
2022/04/04 00:15:54;;;;;;;9.88;5.13;;;;;;;;;;7368901;19;20006;-82
2022/04/04 00:18:19;;;;;;;8.27;4.72;;;;;;;;;;7376609;19;20364;-82
2022/04/04 00:20:44;;;;;;;9.25;4.93;;;;;;;;;;7376424;19;20027;-82
2022/04/04 00:23:12;;;;;;;11.15;5.38;;;;;;;;;;7377893;19;20006;-82
2022/04/04 00:25:41;;;;;;;10.75;5.50;;;;;;;;;;7352803;19;20327;-82
2022/04/04 00:28:06;;;;;;;9.73;4.72;;;;;;;;;;7363567;19;20018;-82
2022/04/04 00:30:32;;;;;;;8.82;4.88;;;;;;;;;;7366374;19;20738;-82
2022/04/04 00:32:57;;;;;;;9.65;4.75;;;;;;;;;;7378324;19;20014;-82
2022/04/04 00:35:23;;;;;;;10.45;4.78;;;;;;;;;;7375434;19;20014;-82
2022/04/04 00:37:48;;;;;;;10.43;5.03;;;;;;;;;;7368289;19;20480;-82
2022/04/04 00:40:13;;;;;;;9.50;5.40;;;;;;;;;;7356221;19;19998;-82
2022/04/04 00:42:38;;;;;;;9.98;5.07;;;;;;;;;;7364401;19;20006;-82
2022/04/04 00:45:04;;;;;;;12.02;5.53;;;;;;;;;;7375532;19;20077;-82
2022/04/04 00:47:29;;;;;;;11.18;5.60;;;;;;;;;;7378208;19;20014;-82
2022/04/04 00:49:54;;;;;;;13.07;5.70;;;;;;;;;;7371391;19;20337;-82
2022/04/04 00:52:19;;;;;;;9.27;5.40;;;;;;;;;;7351107;19;20030;-81
2022/04/04 00:54:45;;;;;;;10.93;5.70;;;;;;;;;;7364468;19;20323;-81
2022/04/04 00:57:10;;;;;;;13.95;6.80;;;;;;;;;;7356658;19;20023;-81
2022/04/04 00:59:36;;;;;;;10.23;5.45;;;;;;;;;;7366399;19;20440;-81
2022/04/04 01:02:01;;;;;;;9.30;5.15;;;;;;;;;;7369985;19;20457;-81
2022/04/04 01:04:26;;;;;;;12.45;6.22;;;;;;;;;;7377514;19;20021;-81
2022/04/04 01:06:52;;;;;;;10.38;5.93;;;;;;;;;;7374596;19;20028;-81
2022/04/04 01:09:17;;;;;;;10.43;5.60;;;;;;;;;;7361797;19;20014;-81
2022/04/04 01:12:00;;;;;;;11.07;5.75;;;;;;;;;;7363854;19;20340;-81
2022/04/04 01:14:25;;;;;;;11.70;5.73;;;;;;;;;;7368208;19;20109;-81
2022/04/04 01:16:51;;;;;;;11.82;5.85;;;;;;;;;;7376384;19;20433;-81
2022/04/04 01:19:16;;;;;;;10.05;5.38;;;;;;;;;;7372304;19;20082;-81
2022/04/04 01:21:41;;;;;;;11.90;6.05;;;;;;;;;;7360495;19;20010;-81
2022/04/04 01:24:15;;;;;;;12.13;5.70;;;;;;;;;;7375857;19;20035;-81
2022/04/04 01:26:40;;;;;;;;;;;;;;;;;;7354630;19;20038;-81
2022/04/04 01:29:05;;;;;;;10.75;5.78;;;;;;;;;;7374579;19;20011;-81
2022/04/04 01:31:30;;;;;;;12.43;6.25;;;;;;;;;;7375070;19;20019;-81
2022/04/04 01:33:55;;;;;;;13.07;6.90;;;;;;;;;;7376222;19;19999;-81
2022/04/04 01:36:20;;;;;;;9.85;6.35;;;;;;;;;;7359224;19;20259;-81
2022/04/04 01:38:46;;;;;;;11.00;6.32;;;;;;;;;;7378101;19;20026;-81
2022/04/04 01:41:11;;;;;;;11.48;6.45;;;;;;;;;;7367776;19;20006;-81
2022/04/04 01:43:36;;;;;;;13.18;6.25;;;;;;;;;;7353177;19;20078;-81
2022/04/04 01:48:45;;;;;;;11.57;6.30;;;;;;;;;;7374421;19;20016;-81
2022/04/04 01:51:11;;;;;;;11.45;6.90;;;;;;;;;;7363521;19;20014;-81
2022/04/04 01:53:36;;;;;;;13.63;6.93;;;;;;;;;;7348942;19;20351;-81
2022/04/04 01:56:03;;;;;;;15.32;6.90;;;;;;;;;;7370314;19;20014;-81
2022/04/04 01:58:29;;;;;;;10.20;7.13;;;;;;;;;;7349892;19;20030;-81
2022/04/04 02:00:56;;;;;;;12.35;6.57;;;;;;;;;;7376417;19;20086;-81
2022/04/04 02:03:22;;;;;;;15.93;7.13;;;;;;;;;;7366874;19;20574;-81
2022/04/04 02:05:47;;;;;;;11.68;7.45;;;;;;;;;;7376255;19;20081;-81
2022/04/04 02:08:12;;;;;;;13.63;7.07;;;;;;;;;;7372697;19;20467;-81
2022/04/04 02:10:37;;;;;;;13.60;7.40;;;;;;;;;;7370054;19;20478;-81
2022/04/04 02:13:02;;;;;;;15.77;7.95;;;;;;;;;;7348496;19;20451;-81
2022/04/04 02:15:28;;;;;;;16.48;8.10;;;;;;;;;;7371148;19;20007;-81
2022/04/04 02:17:53;;;;;;;14.02;7.90;;;;;;;;;;7373849;19;20487;-81
2022/04/04 02:20:18;;;;;;;14.13;7.10;;;;;;;;;;7371860;19;20017;-81
2022/04/04 02:22:44;;;;;;;14.02;7.63;;;;;;;;;;7348825;19;20388;-81
2022/04/04 02:25:09;;;;;;;13.60;8.43;;;;;;;;;;7376289;19;20003;-81
2022/04/04 02:27:34;;;;;;;13.73;8.23;;;;;;;;;;7363691;19;20014;-79
2022/04/04 02:29:59;;;;;;;12.88;8.98;;;;;;;;;;7380272;19;20011;-81
2022/04/04 02:32:24;;;;;;;17.52;9.15;;;;;;;;;;7380135;19;20022;-81
2022/04/04 02:34:50;;;;;;;17.50;9.48;;;;;;;;;;7375981;19;20357;-80
2022/04/04 02:37:15;;;;;;;15.48;9.43;;;;;;;;;;7380465;19;20007;-82
2022/04/04 02:39:40;;;;;;;14.38;9.50;;;;;;;;;;7378277;19;20317;-82
2022/04/04 02:42:06;;;;;;;16.10;9.32;;;;;;;;;;7364903;19;20074;-82
2022/04/04 02:44:31;;;;;;;16.30;9.35;;;;;;;;;;7374943;19;20006;-82
2022/04/04 02:46:56;;;;;;;13.88;9.57;;;;;;;;;;7378272;19;20042;-82
2022/04/04 02:49:23;;;;;;;18.70;10.35;;;;;;;;;;7377540;19;20338;-82
2022/04/04 02:51:48;;;;;;;16.77;10.75;;;;;;;;;;7380999;19;20407;-83
2022/04/04 02:54:14;;;;;;;18.08;11.07;;;;;;;;;;7371049;19;19991;-81
2022/04/04 02:56:41;;;;;;;16.95;10.23;;;;;;;;;;7372908;19;20015;-81
2022/04/04 02:59:07;;;;;;;19.58;11.55;;;;;;;;;;7362140;19;19998;-81
2022/04/04 03:01:33;;;;;;;17.95;11.70;;;;;;;;;;7377117;19;20396;-81
2022/04/04 03:03:58;;;;;;;19.52;11.63;;;;;;;;;;7378747;19;20022;-81
2022/04/04 03:06:23;;;;;;;18.98;11.88;;;;;;;;;;7382482;19;20003;-82
2022/04/04 03:08:49;;;;;;;18.08;11.63;;;;;;;;;;7376937;19;20016;-82
2022/04/04 03:11:15;;;;;;;21.15;12.93;;;;;;;;;;7366774;19;20014;-82
2022/04/04 03:13:40;;;;;;;19.00;11.82;;;;;;;;;;7380762;19;20010;-82
2022/04/04 03:16:05;;;;;;;19.85;11.82;;;;;;;;;;7381681;19;20347;-81
2022/04/04 03:18:31;;;;;;;18.73;11.82;;;;;;;;;;7377170;19;20002;-82
2022/04/04 03:20:56;;;;;;;18.77;11.60;;;;;;;;;;7366337;19;20308;-81
2022/04/04 03:23:22;;;;;;;17.58;11.75;;;;;;;;;;7379295;19;20029;-80
2022/04/04 03:25:47;;;;;;;20.42;12.02;;;;;;;;;;7376736;19;20018;-81
2022/04/04 03:28:12;;;;;;;21.38;12.13;;;;;;;;;;7372588;19;20421;-80
2022/04/04 03:30:37;;;;;;;16.90;11.18;;;;;;;;;;7379949;19;20605;-83
2022/04/04 03:33:03;;;;;;;16.85;10.93;;;;;;;;;;7375445;19;20014;-82
2022/04/04 03:35:30;;;;;;;17.80;11.88;;;;;;;;;;7380366;19;20014;-82
2022/04/04 03:37:56;;;;;;;18.92;11.82;;;;;;;;;;7359423;19;20474;-82
2022/04/04 03:40:21;;;;;;;18.10;11.88;;;;;;;;;;7378912;19;20082;-81
2022/04/04 03:42:48;;;;;;;21.08;11.65;;;;;;;;;;7364092;19;20440;-82
2022/04/04 03:45:14;;;;;;;18.90;11.73;;;;;;;;;;7379025;19;20482;-82
2022/04/04 03:47:40;;;;;;;18.75;11.93;;;;;;;;;;7374744;19;20010;-82
2022/04/04 03:50:06;;;;;;;21.42;12.07;;;;;;;;;;7378735;19;19995;-82
2022/04/04 03:52:31;;;;;;;24.02;12.82;;;;;;;;;;7363128;19;20018;-82
2022/04/04 03:54:56;;;;;;;18.98;11.93;;;;;;;;;;7377077;19;20007;-81
2022/04/04 03:57:22;;;;;;;21.27;11.98;;;;;;;;;;7366012;19;19999;-82
2022/04/04 03:59:47;;;;;;;19.25;12.73;;;;;;;;;;7372444;19;20103;-82
2022/04/04 04:02:12;;;;;;;22.85;13.55;;;;;;;;;;7369013;19;20400;-82
2022/04/04 04:04:38;;;;;;;26.75;14.55;;;;;;;;;;7379398;19;20024;-82
2022/04/04 04:07:04;;;;;;;22.33;13.93;;;;;;;;;;7369539;19;19999;-82
2022/04/04 04:09:29;;;;;;;20.10;12.60;;;;;;;;;;7371747;19;20377;-82
2022/04/04 04:11:55;;;;;;;20.85;13.60;;;;;;;;;;7353792;19;20434;-82
2022/04/04 04:14:21;;;;;;;25.90;15.10;;;;;;;;;;7367937;19;20549;-82
2022/04/04 04:16:46;;;;;;;22.85;14.38;;;;;;;;;;7373263;19;20020;-82
2022/04/04 04:20:19;;;;;;;26.23;14.98;;;;;;;;;;7376700;19;20018;-82
2022/04/04 04:21:56;;;;;;;27.33;14.50;;;;;;;;;;7373073;19;20506;-82
2022/04/04 04:24:22;;;;;;;26.45;15.57;;;;;;;;;;7368891;19;20007;-81
2022/04/04 04:26:47;;;;;;;25.02;15.25;;;;;;;;;;7367469;19;20018;-81
2022/04/04 04:29:13;;;;;;;27.48;15.38;;;;;;;;;;7380586;19;20010;-80
2022/04/04 04:31:38;;;;;;;23.50;14.85;;;;;;;;;;7377825;19;20007;-81
2022/04/04 04:34:03;;;;;;;26.67;15.52;;;;;;;;;;7375148;19;20041;-80
2022/04/04 04:36:28;;;;;;;25.17;14.13;;;;;;;;;;7363540;19;20002;-82
2022/04/04 04:38:53;;;;;;;26.15;14.43;;;;;;;;;;7376529;19;20099;-83
2022/04/04 04:41:19;;;;;;;22.98;15.10;;;;;;;;;;7368648;19;20006;-83
2022/04/04 04:43:44;;;;;;;27.27;15.40;;;;;;;;;;7367309;19;20003;-83
2022/04/04 04:46:09;;;;;;;23.58;14.13;;;;;;;;;;7374406;19;20038;-83
2022/04/04 04:48:34;;;;;;;25.88;16.17;;;;;;;;;;7373145;19;20573;-80
2022/04/04 04:51:00;;;;;;;29.90;16.30;;;;;;;;;;7369057;19;20074;-82
2022/04/04 04:53:25;;;;;;;27.63;16.48;;;;;;;;;;7370151;19;20078;-82
2022/04/04 04:55:50;;;;;;;28.38;17.08;;;;;;;;;;7378809;19;20024;-82
2022/04/04 04:58:16;;;;;;;24.92;15.40;;;;;;;;;;7369890;19;20006;-82
2022/04/04 05:00:41;;;;;;;28.80;16.15;;;;;;;;;;7373232;19;20013;-82
2022/04/04 05:03:24;;;;;;;25.65;16.45;;;;;;;;;;7359179;19;20005;-82
2022/04/04 05:05:49;;;;;;;29.45;18.88;;;;;;;;;;7363480;19;20322;-82
2022/04/04 05:08:16;;;;;;;29.60;17.05;;;;;;;;;;7374247;19;20014;-82
2022/04/04 05:10:41;;;;;;;29.40;17.33;;;;;;;;;;7361237;19;20002;-82
2022/04/04 05:13:06;;;;;;;28.83;17.50;;;;;;;;;;7339248;19;20056;-82
2022/04/04 05:15:32;;;;;;;26.35;17.13;;;;;;;;;;7362733;19;20002;-82
2022/04/04 05:17:57;;;;;;;32.28;17.02;;;;;;;;;;7359777;19;20038;-82
2022/04/04 05:20:23;;;;;;;30.08;17.55;;;;;;;;;;7371869;19;20303;-82
2022/04/04 05:22:48;;;;;;;34.45;18.95;;;;;;;;;;7366336;19;20415;-82
2022/04/04 05:25:14;;;;;;;36.22;19.00;;;;;;;;;;7375690;19;20015;-82
2022/04/04 05:27:39;;;;;;;30.75;18.10;;;;;;;;;;7350351;19;20391;-83
2022/04/04 05:30:05;;;;;;;36.65;20.00;;;;;;;;;;7371202;19;20010;-82
2022/04/04 05:32:30;;;;;;;32.75;18.85;;;;;;;;;;7370031;19;19991;-82
2022/04/04 05:34:56;;;;;;;34.17;20.40;;;;;;;;;;7349159;19;20014;-82
2022/04/04 05:37:21;;;;;;;35.15;19.80;;;;;;;;;;7372327;19;19999;-76
2022/04/04 05:39:46;;;;;;;36.15;19.77;;;;;;;;;;7370465;19;20721;-81
2022/04/04 05:42:11;;;;;;;32.95;20.15;;;;;;;;;;7349731;19;20015;-79
2022/04/04 05:44:36;;;;;;;37.95;22.25;;;;;;;;;;7346993;19;20295;-79
2022/04/04 05:47:02;;;;;;;34.47;20.33;;;;;;;;;;7375083;19;20007;-79
2022/04/04 05:49:27;;;;;;;33.38;19.55;;;;;;;;;;7368372;19;20009;-80
2022/04/04 05:51:52;;;;;;;34.40;20.15;;;;;;;;;;7371259;19;20031;-81
2022/04/04 05:54:17;;;;;;;35.45;20.17;;;;;;;;;;7377568;19;20557;-80
2022/04/04 05:56:44;;;;;;;31.20;19.67;;;;;;;;;;7370198;19;20018;-80
2022/04/04 05:59:11;;;;;;;31.85;19.52;;;;;;;;;;7385033;19;20451;-80
2022/04/04 06:01:36;;;;;;;35.67;20.17;;;;;;;;;;7381226;19;20094;-80
2022/04/04 06:04:02;;;;;;;32.20;18.67;;;;;;;;;;7384075;19;20535;-79
2022/04/04 06:06:28;;;;;;;35.88;19.92;;;;;;;;;;7364844;19;20011;-81
2022/04/04 06:08:53;;;;;;;32.75;17.77;;;;;;;;;;7371635;19;20024;-79
2022/04/04 06:11:18;;;;;;;35.72;19.48;;;;;;;;;;7376784;19;20009;-79
2022/04/04 06:13:44;;;;;;;33.47;19.90;;;;;;;;;;7375001;19;20014;-80
2022/04/04 06:16:09;;;;;;;33.33;19.38;;;;;;;;;;7387335;19;20016;-79
2022/04/04 06:18:35;;;;;;;34.20;19.52;;;;;;;;;;7384508;19;19998;-79
2022/04/04 06:21:02;;;;;;;32.20;18.08;;;;;;;;;;7387176;19;20014;-79
2022/04/04 06:23:28;;;;;;;36.83;18.63;;;;;;;;;;7373594;19;20044;-79
2022/04/04 06:25:53;;;;;;;32.58;17.48;;;;;;;;;;7380057;19;20006;-79
2022/04/04 06:28:18;;;;;;;33.20;18.92;;;;;;;;;;7365274;19;20014;-79
2022/04/04 06:30:44;;;;;;;33.70;17.67;;;;;;;;;;7382660;19;20449;-78
2022/04/04 06:33:09;;;;;;;34.05;17.33;;;;;;;;;;7382424;19;20017;-79
2022/04/04 06:35:35;;;;;;;29.00;17.02;;;;;;;;;;7387470;19;20019;-79
2022/04/04 06:38:01;;;;;;;31.33;17.02;;;;;;;;;;7367598;19;20059;-79
2022/04/04 06:40:27;;;;;;;27.40;16.98;;;;;;;;;;7385542;19;20014;-79
2022/04/04 06:42:52;;;;;;;36.63;18.48;;;;;;;;;;7366022;19;20003;-80
2022/04/04 06:45:17;;;;;;;35.15;17.80;;;;;;;;;;7381959;19;20489;-79
2022/04/04 06:47:43;;;;;;;32.78;17.38;;;;;;;;;;7378319;19;20111;-79
2022/04/04 06:50:08;;;;;;;33.20;19.05;;;;;;;;;;7382346;19;20010;-79
2022/04/04 06:52:33;;;;;;;36.78;18.15;;;;;;;;;;7374271;19;19994;-79
2022/04/04 06:54:59;;;;;;;30.33;17.65;;;;;;;;;;7385980;19;20011;-79
2022/04/04 06:57:25;;;;;;;33.28;17.23;;;;;;;;;;7370632;19;20018;-78
2022/04/04 06:59:50;;;;;;;32.85;17.33;;;;;;;;;;7388393;19;19994;-78
2022/04/04 07:02:15;;;;;;;29.45;15.68;;;;;;;;;;7375228;19;20018;-78
2022/04/04 07:04:41;;;;;;;32.65;18.33;;;;;;;;;;7373799;19;20814;-77
2022/04/04 07:07:07;;;;;;;32.25;17.17;;;;;;;;;;7373250;19;20031;-78
2022/04/04 07:09:32;;;;;;;28.77;16.70;;;;;;;;;;7381608;19;20018;-79
2022/04/04 07:11:57;;;;;;;28.65;16.38;;;;;;;;;;7366881;19;20018;-79
2022/04/04 07:14:24;;;;;;;27.65;15.85;;;;;;;;;;7382052;19;20366;-78
2022/04/04 07:16:52;;;;;;;26.80;16.92;;;;;;;;;;7376947;19;20018;-78
2022/04/04 07:19:17;;;;;;;25.00;13.48;;;;;;;;;;7382047;19;20044;-78
2022/04/04 07:21:43;;;;;;;24.40;13.70;;;;;;;;;;7366060;19;20003;-78
2022/04/04 07:24:09;;;;;;;23.90;14.10;;;;;;;;;;7381207;19;20596;-77
2022/04/04 07:26:35;;;;;;;23.95;13.23;;;;;;;;;;7369688;19;20014;-78
2022/04/04 07:29:00;;;;;;;24.13;14.07;;;;;;;;;;7381403;19;19995;-79
2022/04/04 07:31:25;;;;;;;29.77;16.90;;;;;;;;;;7378144;19;20002;-78
2022/04/04 07:33:51;;;;;;;21.38;13.77;;;;;;;;;;7373065;19;20018;-78
2022/04/04 07:36:17;;;;;;;26.77;14.32;;;;;;;;;;7379268;19;20230;-78
2022/04/04 07:38:42;;;;;;;26.27;14.43;;;;;;;;;;7373235;19;20010;-79
2022/04/04 07:41:08;;;;;;;26.23;13.65;;;;;;;;;;7380128;19;20006;-79
2022/04/04 07:43:33;;;;;;;20.98;13.20;;;;;;;;;;7360155;19;19999;-79
2022/04/04 07:45:58;;;;;;;23.75;12.95;;;;;;;;;;7380249;19;20006;-78
2022/04/04 07:48:23;;;;;;;20.73;11.40;;;;;;;;;;7374721;19;20003;-78
2022/04/04 07:50:48;;;;;;;21.48;11.60;;;;;;;;;;7369976;19;20446;-78
2022/04/04 07:53:14;;;;;;;19.00;11.25;;;;;;;;;;7381027;19;19998;-79
2022/04/04 07:55:40;;;;;;;17.48;11.38;;;;;;;;;;7377776;19;20019;-79
2022/04/04 07:58:05;;;;;;;15.45;10.48;;;;;;;;;;7363719;19;20400;-78
2022/04/04 08:00:31;;;;;;;17.45;11.20;;;;;;;;;;7384428;19;20031;-79
2022/04/04 08:02:56;;;;;;;17.27;11.15;;;;;;;;;;7378656;19;20023;-79
2022/04/04 08:05:21;;;;;;;22.25;11.32;;;;;;;;;;7370298;19;19991;-79
2022/04/04 08:07:48;;;;;;;20.08;10.95;;;;;;;;;;7382415;19;20022;-79
2022/04/04 08:10:13;;;;;;;16.35;10.13;;;;;;;;;;7370699;19;20009;-78
2022/04/04 08:12:38;;;;;;;21.40;11.63;;;;;;;;;;7363371;19;20081;-79
2022/04/04 08:15:04;;;;;;;18.15;10.00;;;;;;;;;;7380098;19;20034;-78
2022/04/04 08:17:30;;;;;;;17.58;9.43;;;;;;;;;;7373700;19;20042;-78
2022/04/04 08:19:56;;;;;;;17.60;9.18;;;;;;;;;;7369218;19;20002;-78
2022/04/04 08:22:22;;;;;;;15.00;9.20;;;;;;;;;;7367950;19;20102;-78
2022/04/04 08:24:48;;;;;;;15.73;9.45;;;;;;;;;;7377372;19;20022;-79
2022/04/04 08:27:13;;;;;;;15.35;8.90;;;;;;;;;;7366402;19;20010;-79
2022/04/04 08:29:38;;;;;;;13.75;8.30;;;;;;;;;;7376387;19;20082;-80
2022/04/04 08:32:05;;;;;;;16.85;8.43;;;;;;;;;;7375426;19;20010;-79
2022/04/04 08:34:30;;;;;;;16.77;9.65;;;;;;;;;;7369604;19;20014;-79
2022/04/04 08:36:55;;;;;;;15.63;9.27;;;;;;;;;;7377170;19;20039;-77
2022/04/04 08:39:20;;;;;;;15.25;9.10;;;;;;;;;;7376734;19;20009;-79
2022/04/04 08:41:45;;;;;;;15.45;8.15;;;;;;;;;;7364455;19;20046;-79
2022/04/04 08:44:11;;;;;;;15.43;8.27;;;;;;;;;;7376820;19;20003;-79
2022/04/04 08:46:37;;;;;;;14.98;8.35;;;;;;;;;;7375248;19;20021;-80
2022/04/04 08:49:06;;;;;;;13.32;7.40;;;;;;;;;;7379420;19;20009;-79
2022/04/04 08:51:32;;;;;;;13.35;9.10;;;;;;;;;;7371356;19;20023;-81
2022/04/04 08:53:57;;;;;;;11.73;6.28;;;;;;;;;;7383336;19;20010;-83
2022/04/04 08:56:23;;;;;;;12.30;7.85;;;;;;;;;;7372792;19;20308;-81
2022/04/04 08:58:49;;;;;;;10.18;6.00;;;;;;;;;;7369815;19;20014;-83
2022/04/04 09:01:14;;;;;;;13.43;5.93;;;;;;;;;;7379249;19;20431;-83
2022/04/04 09:03:39;;;;;;;11.87;6.67;;;;;;;;;;7376613;19;20501;-85
2022/04/04 09:06:05;;;;;;;8.65;4.65;;;;;;;;;;7373619;19;20251;-82
2022/04/04 09:08:41;;;;;;;7.38;4.53;;;;;;;;;;7381002;19;20407;-81
2022/04/04 09:11:07;;;;;;;15.05;4.70;;;;;;;;;;7372023;19;20363;-85
2022/04/04 09:13:32;;;;;;;10.90;4.55;;;;;;;;;;7368444;19;20022;-82
2022/04/04 09:16:02;;;;;;;9.35;5.15;;;;;;;;;;7374333;19;20022;-85
2022/04/04 09:18:36;;;;;;;9.25;4.43;;;;;;;;;;7381990;19;20536;-82
2022/04/04 09:21:05;;;;;;;10.90;5.05;;;;;;;;;;7378249;19;20102;-82
2022/04/04 09:23:33;;;;;;;12.57;4.63;;;;;;;;;;7380137;19;20010;-86
2022/04/04 09:26:00;;;;;;;12.77;4.50;;;;;;;;;;7375079;19;20014;-84
2022/04/04 09:28:26;;;;;;;9.48;4.13;;;;;;;;;;7368083;19;19995;-82
2022/04/04 09:31:04;;;;;;;12.75;4.53;;;;;;;;;;7377187;19;20021;-83
2022/04/04 09:33:36;;;;;;;9.40;4.90;;;;;;;;;;7384979;19;20111;-83
2022/04/04 09:36:03;;;;;;;10.52;4.40;;;;;;;;;;7381666;19;20478;-82
2022/04/04 09:38:30;;;;;;;11.15;4.65;;;;;;;;;;7381945;19;19994;-82
2022/04/04 09:40:55;;;;;;;9.77;4.53;;;;;;;;;;7384793;19;20038;-82
2022/04/04 09:43:21;;;;;;;9.57;4.47;;;;;;;;;;7372758;19;19999;-82
2022/04/04 09:45:47;;;;;;;7.07;3.33;;;;;;;;;;7386856;19;20014;-82
2022/04/04 09:48:12;;;;;;;9.93;4.38;;;;;;;;;;7386813;19;20062;-82
2022/04/04 09:50:41;;;;;;;9.15;4.68;;;;;;;;;;7385648;19;20276;-82
2022/04/04 09:53:20;;;;;;;10.75;4.65;;;;;;;;;;7380430;19;20084;-81
2022/04/04 09:55:46;;;;;;;8.45;4.28;;;;;;;;;;7387444;19;20554;-82
2022/04/04 09:58:16;;;;;;;12.93;4.65;;;;;;;;;;7369965;19;20015;-82
2022/04/04 10:00:44;;;;;;;7.10;3.60;;;;;;;;;;7387573;19;20002;-81
2022/04/04 10:03:12;;;;;;;9.45;4.22;;;;;;;;;;7386734;19;20002;-83
2022/04/04 10:05:39;;;;;;;9.73;4.50;;;;;;;;;;7377633;19;20812;-80
2022/04/04 10:08:04;;;;;;;11.40;4.57;;;;;;;;;;7372632;19;19994;-83
2022/04/04 10:10:30;;;;;;;9.65;5.07;;;;;;;;;;7383254;19;20098;-82
2022/04/04 10:12:56;;;;;;;7.75;4.82;;;;;;;;;;7370093;19;19990;-81
2022/04/04 10:15:22;;;;;;;10.75;4.90;;;;;;;;;;7386464;19;20103;-83
2022/04/04 10:17:48;;;;;;;8.35;4.43;;;;;;;;;;7380793;19;20481;-80
2022/04/04 10:20:14;;;;;;;9.23;4.97;;;;;;;;;;7383778;19;20014;-82
2022/04/04 10:22:39;;;;;;;9.18;4.75;;;;;;;;;;7376339;19;20018;-83
2022/04/04 10:25:07;;;;;;;8.13;4.82;;;;;;;;;;7386416;19;20015;-81
2022/04/04 10:27:33;;;;;;;9.13;4.40;;;;;;;;;;7368921;19;20452;-82
2022/04/04 10:30:05;;;;;;;12.93;4.88;;;;;;;;;;7382905;19;20005;-81
2022/04/04 10:32:30;;;;;;;9.43;4.28;;;;;;;;;;7382597;19;20533;-82
2022/04/04 10:34:56;;;;;;;9.15;4.68;;;;;;;;;;7379701;19;20006;-81
2022/04/04 10:37:25;;;;;;;14.82;4.90;;;;;;;;;;7380909;19;20030;-81
2022/04/04 10:39:51;;;;;;;7.88;4.20;;;;;;;;;;7381172;19;20018;-84
2022/04/04 10:42:33;;;;;;;11.63;4.68;;;;;;;;;;7366093;19;20491;-83
2022/04/04 10:44:59;;;;;;;9.73;4.20;;;;;;;;;;7385573;19;20006;-83
2022/04/04 10:47:26;;;;;;;7.80;4.45;;;;;;;;;;7380300;19;19995;-80
2022/04/04 10:49:54;;;;;;;10.00;4.28;;;;;;;;;;7384219;19;20034;-81
2022/04/04 10:52:22;;;;;;;17.30;4.45;;;;;;;;;;7376064;19;20003;-84
2022/04/04 10:54:47;;;;;;;8.35;3.95;;;;;;;;;;7385448;19;20093;-83
2022/04/04 10:57:17;;;;;;;9.70;4.10;;;;;;;;;;7362846;19;20010;-86
2022/04/04 10:59:46;;;;;;;9.52;4.40;;;;;;;;;;7368689;19;20021;-81
2022/04/04 11:02:12;;;;;;;13.38;4.75;;;;;;;;;;7370903;19;20328;-81
2022/04/04 11:04:38;;;;;;;9.95;4.30;;;;;;;;;;7380775;19;20315;-82
2022/04/04 11:10:05;;;;;;;8.35;4.10;;;;;;;;;;7367247;19;20573;-82
2022/04/04 11:12:51;;;;;;;10.05;4.82;;;;;;;;;;7366738;19;20007;-81
2022/04/04 11:15:16;;;;;;;14.57;4.60;;;;;;;;;;7383425;19;20392;-82
2022/04/04 11:17:55;;;;;;;9.32;4.38;;;;;;;;;;7375759;19;20022;-83
2022/04/04 11:20:31;;;;;;;12.20;4.50;;;;;;;;;;7383084;19;20011;-80
2022/04/04 11:22:57;;;;;;;12.25;4.60;;;;;;;;;;7367171;19;20014;-82
2022/04/04 11:25:26;;;;;;;8.82;4.30;;;;;;;;;;7378063;19;20005;-81
2022/04/04 11:27:52;;;;;;;10.73;4.50;;;;;;;;;;7362894;19;20046;-85
2022/04/04 11:30:18;;;;;;;11.45;5.45;;;;;;;;;;7379038;19;20014;-81
2022/04/04 11:32:44;;;;;;;7.20;3.95;;;;;;;;;;7378079;19;20031;-83
2022/04/04 11:35:11;;;;;;;10.35;4.28;;;;;;;;;;7379268;19;20058;-82
2022/04/04 11:37:40;;;;;;;11.77;4.13;;;;;;;;;;7369657;19;20019;-85
2022/04/04 11:40:06;;;;;;;8.15;4.40;;;;;;;;;;7376522;19;20003;-86
2022/04/04 11:42:39;;;;;;;7.25;3.30;;;;;;;;;;7373497;19;20018;-81
2022/04/04 11:45:04;;;;;;;8.68;4.25;;;;;;;;;;7382309;19;20019;-81
2022/04/04 11:47:29;;;;;;;8.48;3.97;;;;;;;;;;7380734;19;20402;-84
2022/04/04 11:49:58;;;;;;;12.77;5.00;;;;;;;;;;7367269;19;20018;-84
2022/04/04 11:52:25;;;;;;;11.00;4.13;;;;;;;;;;7383330;19;20243;-81
2022/04/04 11:54:51;;;;;;;7.28;4.05;;;;;;;;;;7379246;19;20010;-81
2022/04/04 11:57:17;;;;;;;10.55;4.47;;;;;;;;;;7374563;19;20568;-82
2022/04/04 11:59:49;;;;;;;8.30;4.35;;;;;;;;;;7379718;19;20010;-81
2022/04/04 12:02:16;;;;;;;11.27;4.72;;;;;;;;;;7377977;19;20028;-86
2022/04/04 12:04:43;;;;;;;10.45;4.80;;;;;;;;;;7380591;19;20002;-82
2022/04/04 12:07:09;;;;;;;8.18;3.90;;;;;;;;;;7366046;19;20014;-83
2022/04/04 12:09:35;;;;;;;10.70;4.60;;;;;;;;;;7372640;19;20019;-81
2022/04/04 12:12:04;;;;;;;13.18;4.88;;;;;;;;;;7375447;19;20096;-81
2022/04/04 12:14:31;;;;;;;10.18;4.68;;;;;;;;;;7365743;19;20335;-81
2022/04/04 12:16:56;;;;;;;9.82;5.30;;;;;;;;;;7380464;19;20521;-84
2022/04/04 12:19:22;;;;;;;12.77;5.20;;;;;;;;;;7379209;19;20366;-81
2022/04/04 12:21:47;;;;;;;12.40;5.53;;;;;;;;;;7371663;19;20074;-81
2022/04/04 12:27:12;;;;;;;10.13;5.05;;;;;;;;;;7373549;19;20461;-85
2022/04/04 12:29:41;;;;;;;12.13;5.20;;;;;;;;;;7382498;19;20023;-83
2022/04/04 12:32:14;;;;;;;11.73;5.63;;;;;;;;;;7379912;19;20011;-82
2022/04/04 12:34:39;;;;;;;12.95;5.10;;;;;;;;;;7365265;19;20007;-83
2022/04/04 12:37:07;;;;;;;11.35;6.00;;;;;;;;;;7373519;19;20469;-84
2022/04/04 12:39:32;;;;;;;14.82;5.70;;;;;;;;;;7379413;19;20009;-81
2022/04/04 12:41:57;;;;;;;12.10;5.57;;;;;;;;;;7373325;19;20367;-81
2022/04/04 12:44:24;;;;;;;10.40;4.88;;;;;;;;;;7381487;19;20006;-81
2022/04/04 12:46:49;;;;;;;10.02;4.90;;;;;;;;;;7377021;19;20018;-81
2022/04/04 12:49:14;;;;;;;11.98;5.18;;;;;;;;;;7382114;19;20014;-83
2022/04/04 12:51:49;;;;;;;11.80;5.90;;;;;;;;;;7366468;19;20020;-82
2022/04/04 12:54:22;;;;;;;9.82;5.57;;;;;;;;;;7381147;19;20022;-83
2022/04/04 12:56:49;;;;;;;9.45;4.78;;;;;;;;;;7370200;19;20003;-84
2022/04/04 12:59:14;;;;;;;10.60;5.43;;;;;;;;;;7380999;19;20022;-84
2022/04/04 13:01:39;;;;;;;13.45;6.32;;;;;;;;;;7360760;19;20024;-83
2022/04/04 13:04:19;;;;;;;12.60;5.82;;;;;;;;;;7377009;19;20005;-81
2022/04/04 13:06:45;;;;;;;12.40;5.63;;;;;;;;;;7369742;19;20019;-83
2022/04/04 13:09:10;;;;;;;14.40;5.45;;;;;;;;;;7379320;19;20384;-84
2022/04/04 13:11:48;;;;;;;9.60;5.70;;;;;;;;;;7367226;19;20079;-82
2022/04/04 13:14:14;;;;;;;9.57;5.38;;;;;;;;;;7371378;19;20030;-82
2022/04/04 13:16:40;;;;;;;11.27;5.40;;;;;;;;;;7377733;19;20553;-83
2022/04/04 13:19:07;;;;;;;9.95;4.95;;;;;;;;;;7376986;19;20018;-83
2022/04/04 13:21:33;;;;;;;11.85;6.65;;;;;;;;;;7366657;19;20018;-86
2022/04/04 13:23:58;;;;;;;14.25;6.05;;;;;;;;;;7379770;19;20561;-81
2022/04/04 13:26:23;;;;;;;9.23;5.68;;;;;;;;;;7368641;19;20040;-84
2022/04/04 13:28:48;;;;;;;12.37;6.63;;;;;;;;;;7374957;19;19998;-82
2022/04/04 13:31:13;;;;;;;11.02;6.65;;;;;;;;;;7378042;19;20358;-83
2022/04/04 13:33:39;;;;;;;11.83;5.87;;;;;;;;;;7375718;19;20322;-87
2022/04/04 13:36:04;;;;;;;10.18;6.40;;;;;;;;;;7361679;19;20287;-84
2022/04/04 13:38:30;;;;;;;16.80;7.18;;;;;;;;;;7377096;19;19991;-81
2022/04/04 13:40:55;;;;;;;11.07;5.20;;;;;;;;;;7365667;19;20010;-82
2022/04/04 13:43:20;;;;;;;13.75;7.55;;;;;;;;;;7369601;19;20838;-81
2022/04/04 13:45:46;;;;;;;14.80;7.40;;;;;;;;;;7377496;19;19994;-86
2022/04/04 13:48:11;;;;;;;16.88;7.40;;;;;;;;;;7373635;19;20007;-82
2022/04/04 13:50:36;;;;;;;13.48;7.80;;;;;;;;;;7375227;19;20365;-85
2022/04/04 13:53:01;;;;;;;14.40;8.02;;;;;;;;;;7355000;19;20002;-82
2022/04/04 13:55:26;;;;;;;14.52;7.93;;;;;;;;;;7375610;19;20011;-82
2022/04/04 13:57:52;;;;;;;12.75;7.25;;;;;;;;;;7367066;19;20014;-82
2022/04/04 14:00:17;;;;;;;12.35;8.45;;;;;;;;;;7372558;19;20020;-81
2022/04/04 14:02:43;;;;;;;12.18;7.18;;;;;;;;;;7374532;19;20008;-84
2022/04/04 14:05:13;;;;;;;13.60;7.70;;;;;;;;;;7358480;19;20054;-82
2022/04/04 14:07:38;;;;;;;16.35;8.27;;;;;;;;;;7373085;19;20017;-78
2022/04/04 14:10:03;;;;;;;16.17;8.27;;;;;;;;;;7358384;19;19999;-81
2022/04/04 14:12:29;;;;;;;13.98;8.95;;;;;;;;;;7368365;19;20007;-78
2022/04/04 14:14:54;;;;;;;16.48;9.73;;;;;;;;;;7377104;19;20010;-78
2022/04/04 14:17:21;;;;;;;18.90;8.82;;;;;;;;;;7371994;19;20034;-79
2022/04/04 14:19:47;;;;;;;17.30;8.90;;;;;;;;;;7371009;19;20058;-78
2022/04/04 14:22:13;;;;;;;12.82;7.40;;;;;;;;;;7384444;19;20404;-79
2022/04/04 14:24:38;;;;;;;12.63;8.00;;;;;;;;;;7380019;19;20033;-78
2022/04/04 14:27:03;;;;;;;13.80;7.47;;;;;;;;;;7363130;19;20019;-79
2022/04/04 14:29:29;;;;;;;15.30;8.30;;;;;;;;;;7384146;19;19999;-78
2022/04/04 14:31:54;;;;;;;14.13;7.82;;;;;;;;;;7379591;19;20007;-79